sensor_id;sensor_type;location;lat;lon;timestamp;temperature;humidity
47604;DHT22;33326;51.116;6.900;2022-10-16T00:01:59;14.90;99.90
47604;DHT22;33326;51.116;6.900;2022-10-16T00:07:02;14.80;99.90
47604;DHT22;33326;51.116;6.900;2022-10-16T00:12:06;14.80;99.90
47604;DHT22;33326;51.116;6.900;2022-10-16T00:17:10;14.80;99.90
47604;DHT22;33326;51.116;6.900;2022-10-16T00:22:13;14.70;99.90
47604;DHT22;33326;51.116;6.900;2022-10-16T00:27:15;14.80;99.90
47604;DHT22;33326;51.116;6.900;2022-10-16T00:32:19;14.70;99.90
47604;DHT22;33326;51.116;6.900;2022-10-16T00:37:21;14.70;99.90
47604;DHT22;33326;51.116;6.900;2022-10-16T00:42:24;14.70;99.90
47604;DHT22;33326;51.116;6.900;2022-10-16T00:47:30;14.70;99.90
47604;DHT22;33326;51.116;6.900;2022-10-16T00:52:33;14.70;99.90
47604;DHT22;33326;51.116;6.900;2022-10-16T00:57:35;14.70;99.90
47604;DHT22;33326;51.116;6.900;2022-10-16T01:02:38;14.70;99.90
47604;DHT22;33326;51.116;6.900;2022-10-16T01:07:44;14.70;99.90
47604;DHT22;33326;51.116;6.900;2022-10-16T01:12:54;14.70;99.90
47604;DHT22;33326;51.116;6.900;2022-10-16T01:18:05;14.70;99.90
47604;DHT22;33326;51.116;6.900;2022-10-16T01:23:20;14.80;99.90
47604;DHT22;33326;51.116;6.900;2022-10-16T01:28:28;14.70;99.90
47604;DHT22;33326;51.116;6.900;2022-10-16T01:33:36;14.70;99.90
47604;DHT22;33326;51.116;6.900;2022-10-16T01:38:41;14.70;99.90
47604;DHT22;33326;51.116;6.900;2022-10-16T01:43:49;14.80;99.90
47604;DHT22;33326;51.116;6.900;2022-10-16T01:48:55;14.90;99.90
47604;DHT22;33326;51.116;6.900;2022-10-16T01:53:59;15.00;99.90
47604;DHT22;33326;51.116;6.900;2022-10-16T01:59:06;14.90;99.90
47604;DHT22;33326;51.116;6.900;2022-10-16T02:04:14;14.90;99.90
47604;DHT22;33326;51.116;6.900;2022-10-16T02:09:17;14.90;99.90
47604;DHT22;33326;51.116;6.900;2022-10-16T02:14:21;14.90;99.90
47604;DHT22;33326;51.116;6.900;2022-10-16T02:19:25;15.00;99.90
47604;DHT22;33326;51.116;6.900;2022-10-16T02:24:31;14.90;99.90
47604;DHT22;33326;51.116;6.900;2022-10-16T02:29:40;14.90;99.90
47604;DHT22;33326;51.116;6.900;2022-10-16T02:34:45;14.80;99.90
47604;DHT22;33326;51.116;6.900;2022-10-16T02:39:50;14.90;99.90
47604;DHT22;33326;51.116;6.900;2022-10-16T02:44:54;14.80;99.90
47604;DHT22;33326;51.116;6.900;2022-10-16T02:49:56;14.90;99.90
47604;DHT22;33326;51.116;6.900;2022-10-16T02:54:58;14.90;99.90
47604;DHT22;33326;51.116;6.900;2022-10-16T03:00:03;14.90;99.90
47604;DHT22;33326;51.116;6.900;2022-10-16T03:05:06;14.80;99.90
47604;DHT22;33326;51.116;6.900;2022-10-16T03:10:08;14.80;99.90
47604;DHT22;33326;51.116;6.900;2022-10-16T03:15:12;14.80;99.90
47604;DHT22;33326;51.116;6.900;2022-10-16T03:20:14;14.80;99.90
47604;DHT22;33326;51.116;6.900;2022-10-16T03:25:16;14.80;99.90
47604;DHT22;33326;51.116;6.900;2022-10-16T03:30:19;14.70;99.90
47604;DHT22;33326;51.116;6.900;2022-10-16T03:35:23;14.70;99.90
47604;DHT22;33326;51.116;6.900;2022-10-16T03:40:25;14.60;99.90
47604;DHT22;33326;51.116;6.900;2022-10-16T03:45:29;14.60;99.90
47604;DHT22;33326;51.116;6.900;2022-10-16T03:50:34;14.60;99.90
47604;DHT22;33326;51.116;6.900;2022-10-16T03:55:36;14.60;99.90
47604;DHT22;33326;51.116;6.900;2022-10-16T04:00:42;14.60;99.90
47604;DHT22;33326;51.116;6.900;2022-10-16T04:05:44;14.60;99.90
47604;DHT22;33326;51.116;6.900;2022-10-16T04:10:46;14.60;99.90
47604;DHT22;33326;51.116;6.900;2022-10-16T04:15:50;14.60;99.90
47604;DHT22;33326;51.116;6.900;2022-10-16T04:20:52;14.70;99.90
47604;DHT22;33326;51.116;6.900;2022-10-16T04:25:54;14.60;99.90
47604;DHT22;33326;51.116;6.900;2022-10-16T04:30:58;14.60;99.90
47604;DHT22;33326;51.116;6.900;2022-10-16T04:36:01;14.50;99.90
47604;DHT22;33326;51.116;6.900;2022-10-16T04:41:04;14.40;99.90
47604;DHT22;33326;51.116;6.900;2022-10-16T04:46:08;14.50;99.90
47604;DHT22;33326;51.116;6.900;2022-10-16T04:51:11;14.40;99.90
47604;DHT22;33326;51.116;6.900;2022-10-16T04:56:13;14.30;99.90
47604;DHT22;33326;51.116;6.900;2022-10-16T05:01:17;14.50;99.90
47604;DHT22;33326;51.116;6.900;2022-10-16T05:06:19;14.30;99.90
47604;DHT22;33326;51.116;6.900;2022-10-16T05:11:21;14.30;99.90
47604;DHT22;33326;51.116;6.900;2022-10-16T05:16:26;14.20;99.90
47604;DHT22;33326;51.116;6.900;2022-10-16T05:21:28;14.10;99.90
47604;DHT22;33326;51.116;6.900;2022-10-16T05:26:30;14.10;99.90
47604;DHT22;33326;51.116;6.900;2022-10-16T05:31:36;14.00;99.90
47604;DHT22;33326;51.116;6.900;2022-10-16T05:36:39;14.00;99.90
47604;DHT22;33326;51.116;6.900;2022-10-16T05:41:44;14.00;99.90
47604;DHT22;33326;51.116;6.900;2022-10-16T05:46:48;14.00;99.90
47604;DHT22;33326;51.116;6.900;2022-10-16T05:51:53;14.00;99.90
47604;DHT22;33326;51.116;6.900;2022-10-16T05:56:55;14.00;99.90
47604;DHT22;33326;51.116;6.900;2022-10-16T06:01:59;13.90;99.90
47604;DHT22;33326;51.116;6.900;2022-10-16T06:07:01;14.00;99.90
47604;DHT22;33326;51.116;6.900;2022-10-16T06:12:04;14.00;99.90
47604;DHT22;33326;51.116;6.900;2022-10-16T06:17:07;14.00;99.90
47604;DHT22;33326;51.116;6.900;2022-10-16T06:22:10;14.00;99.90
47604;DHT22;33326;51.116;6.900;2022-10-16T06:27:13;14.00;99.90
47604;DHT22;33326;51.116;6.900;2022-10-16T06:32:19;14.10;99.90
47604;DHT22;33326;51.116;6.900;2022-10-16T06:37:22;14.00;99.90
47604;DHT22;33326;51.116;6.900;2022-10-16T06:42:25;14.00;99.90
47604;DHT22;33326;51.116;6.900;2022-10-16T06:47:34;14.10;99.90
47604;DHT22;33326;51.116;6.900;2022-10-16T06:52:36;14.20;99.90
47604;DHT22;33326;51.116;6.900;2022-10-16T06:57:38;14.20;99.90
47604;DHT22;33326;51.116;6.900;2022-10-16T07:02:42;14.30;99.90
47604;DHT22;33326;51.116;6.900;2022-10-16T07:07:44;14.40;99.90
47604;DHT22;33326;51.116;6.900;2022-10-16T07:12:51;14.50;99.90
47604;DHT22;33326;51.116;6.900;2022-10-16T07:17:54;14.70;99.90
47604;DHT22;33326;51.116;6.900;2022-10-16T07:22:57;14.80;99.90
47604;DHT22;33326;51.116;6.900;2022-10-16T07:27:59;14.80;99.90
47604;DHT22;33326;51.116;6.900;2022-10-16T07:33:03;14.80;99.90
47604;DHT22;33326;51.116;6.900;2022-10-16T07:38:08;14.80;99.90
47604;DHT22;33326;51.116;6.900;2022-10-16T07:43:12;14.80;99.90
47604;DHT22;33326;51.116;6.900;2022-10-16T07:48:18;14.90;99.90
47604;DHT22;33326;51.116;6.900;2022-10-16T07:53:20;14.90;99.90
47604;DHT22;33326;51.116;6.900;2022-10-16T07:58:26;14.90;99.90
47604;DHT22;33326;51.116;6.900;2022-10-16T08:03:33;15.00;99.90
47604;DHT22;33326;51.116;6.900;2022-10-16T08:08:35;15.30;99.90
47604;DHT22;33326;51.116;6.900;2022-10-16T08:13:37;15.50;99.90
47604;DHT22;33326;51.116;6.900;2022-10-16T08:18:42;15.60;99.90
47604;DHT22;33326;51.116;6.900;2022-10-16T08:23:44;16.00;99.90
47604;DHT22;33326;51.116;6.900;2022-10-16T08:28:48;16.20;99.90
47604;DHT22;33326;51.116;6.900;2022-10-16T08:33:58;16.30;99.90
47604;DHT22;33326;51.116;6.900;2022-10-16T08:39:01;16.40;99.90
47604;DHT22;33326;51.116;6.900;2022-10-16T08:44:20;16.60;99.90
47604;DHT22;33326;51.116;6.900;2022-10-16T08:49:30;16.70;99.90
47604;DHT22;33326;51.116;6.900;2022-10-16T08:54:36;17.00;99.90
47604;DHT22;33326;51.116;6.900;2022-10-16T08:59:41;17.10;99.90
47604;DHT22;33326;51.116;6.900;2022-10-16T09:04:58;17.30;99.90
47604;DHT22;33326;51.116;6.900;2022-10-16T09:10:17;17.50;99.90
47604;DHT22;33326;51.116;6.900;2022-10-16T09:15:32;17.60;99.90
47604;DHT22;33326;51.116;6.900;2022-10-16T09:20:45;17.80;99.90
47604;DHT22;33326;51.116;6.900;2022-10-16T09:25:50;18.00;99.90
47604;DHT22;33326;51.116;6.900;2022-10-16T09:30:52;18.10;99.90
47604;DHT22;33326;51.116;6.900;2022-10-16T09:35:57;18.20;99.90
47604;DHT22;33326;51.116;6.900;2022-10-16T09:41:01;18.40;99.90
47604;DHT22;33326;51.116;6.900;2022-10-16T09:46:07;18.70;99.90
47604;DHT22;33326;51.116;6.900;2022-10-16T09:51:18;19.00;99.90
47604;DHT22;33326;51.116;6.900;2022-10-16T09:56:23;19.10;99.90
47604;DHT22;33326;51.116;6.900;2022-10-16T10:01:31;19.20;99.90
47604;DHT22;33326;51.116;6.900;2022-10-16T10:06:43;19.40;99.90
47604;DHT22;33326;51.116;6.900;2022-10-16T10:11:51;19.60;99.90
47604;DHT22;33326;51.116;6.900;2022-10-16T10:17:08;20.00;99.90
47604;DHT22;33326;51.116;6.900;2022-10-16T10:27:51;20.50;99.90
47604;DHT22;33326;51.116;6.900;2022-10-16T10:33:16;20.60;99.90
47604;DHT22;33326;51.116;6.900;2022-10-16T10:38:29;21.00;99.90
47604;DHT22;33326;51.116;6.900;2022-10-16T10:43:48;21.00;99.90
47604;DHT22;33326;51.116;6.900;2022-10-16T10:49:09;20.70;99.90
47604;DHT22;33326;51.116;6.900;2022-10-16T10:54:22;20.70;99.90
47604;DHT22;33326;51.116;6.900;2022-10-16T11:05:27;21.10;99.90
47604;DHT22;33326;51.116;6.900;2022-10-16T11:10:47;21.00;99.90
47604;DHT22;33326;51.116;6.900;2022-10-16T11:15:54;21.20;99.90
47604;DHT22;33326;51.116;6.900;2022-10-16T11:21:04;21.70;99.90
47604;DHT22;33326;51.116;6.900;2022-10-16T11:26:14;21.80;99.90
47604;DHT22;33326;51.116;6.900;2022-10-16T11:31:19;21.60;99.90
47604;DHT22;33326;51.116;6.900;2022-10-16T11:36:34;21.50;99.90
47604;DHT22;33326;51.116;6.900;2022-10-16T11:41:55;21.80;99.90
47604;DHT22;33326;51.116;6.900;2022-10-16T11:47:10;22.20;99.90
47604;DHT22;33326;51.116;6.900;2022-10-16T11:52:52;22.40;99.90
47604;DHT22;33326;51.116;6.900;2022-10-16T11:58:14;23.10;99.90
47604;DHT22;33326;51.116;6.900;2022-10-16T12:03:39;23.80;99.90
47604;DHT22;33326;51.116;6.900;2022-10-16T12:08:45;24.00;99.90
47604;DHT22;33326;51.116;6.900;2022-10-16T12:14:02;24.40;99.90
47604;DHT22;33326;51.116;6.900;2022-10-16T12:19:14;24.20;98.70
47604;DHT22;33326;51.116;6.900;2022-10-16T12:24:26;24.00;98.30
47604;DHT22;33326;51.116;6.900;2022-10-16T12:29:43;23.10;99.10
47604;DHT22;33326;51.116;6.900;2022-10-16T12:35:04;22.70;99.30
47604;DHT22;33326;51.116;6.900;2022-10-16T12:40:13;22.80;99.90
47604;DHT22;33326;51.116;6.900;2022-10-16T12:45:28;24.50;98.50
47604;DHT22;33326;51.116;6.900;2022-10-16T12:50:38;27.30;97.50
47604;DHT22;33326;51.116;6.900;2022-10-16T12:55:46;28.50;92.60
47604;DHT22;33326;51.116;6.900;2022-10-16T13:01:10;26.80;95.20
47604;DHT22;33326;51.116;6.900;2022-10-16T13:06:42;26.90;92.10
47604;DHT22;33326;51.116;6.900;2022-10-16T13:12:25;28.40;92.00
47604;DHT22;33326;51.116;6.900;2022-10-16T13:17:38;29.10;82.80
47604;DHT22;33326;51.116;6.900;2022-10-16T13:23:02;27.50;85.90
47604;DHT22;33326;51.116;6.900;2022-10-16T13:28:07;26.70;85.00
47604;DHT22;33326;51.116;6.900;2022-10-16T13:33:18;25.10;90.70
47604;DHT22;33326;51.116;6.900;2022-10-16T13:38:34;25.40;92.10
47604;DHT22;33326;51.116;6.900;2022-10-16T13:43:45;28.70;86.00
47604;DHT22;33326;51.116;6.900;2022-10-16T13:54:09;31.80;86.30
47604;DHT22;33326;51.116;6.900;2022-10-16T13:59:24;33.50;78.70
47604;DHT22;33326;51.116;6.900;2022-10-16T14:04:32;32.80;71.10
47604;DHT22;33326;51.116;6.900;2022-10-16T14:09:36;31.20;75.00
47604;DHT22;33326;51.116;6.900;2022-10-16T14:14:42;29.70;76.70
47604;DHT22;33326;51.116;6.900;2022-10-16T14:19:46;28.00;79.30
47604;DHT22;33326;51.116;6.900;2022-10-16T14:24:50;26.80;81.30
47604;DHT22;33326;51.116;6.900;2022-10-16T14:30:14;26.00;85.30
47604;DHT22;33326;51.116;6.900;2022-10-16T14:35:27;25.40;84.90
47604;DHT22;33326;51.116;6.900;2022-10-16T14:40:32;24.80;86.10
47604;DHT22;33326;51.116;6.900;2022-10-16T14:45:35;24.30;90.60
47604;DHT22;33326;51.116;6.900;2022-10-16T14:50:42;23.90;92.40
47604;DHT22;33326;51.116;6.900;2022-10-16T14:55:45;23.60;93.70
47604;DHT22;33326;51.116;6.900;2022-10-16T15:00:51;23.20;96.50
47604;DHT22;33326;51.116;6.900;2022-10-16T15:05:53;22.80;99.00
47604;DHT22;33326;51.116;6.900;2022-10-16T15:10:57;22.70;99.60
47604;DHT22;33326;51.116;6.900;2022-10-16T15:15:59;22.50;97.60
47604;DHT22;33326;51.116;6.900;2022-10-16T15:21:01;22.30;99.40
47604;DHT22;33326;51.116;6.900;2022-10-16T15:26:04;22.20;99.90
47604;DHT22;33326;51.116;6.900;2022-10-16T15:31:07;22.00;99.90
47604;DHT22;33326;51.116;6.900;2022-10-16T15:36:09;21.90;99.90
47604;DHT22;33326;51.116;6.900;2022-10-16T15:41:12;21.80;99.90
47604;DHT22;33326;51.116;6.900;2022-10-16T15:46:18;21.70;99.90
47604;DHT22;33326;51.116;6.900;2022-10-16T15:51:20;21.50;99.90
47604;DHT22;33326;51.116;6.900;2022-10-16T15:56:24;21.40;99.90
47604;DHT22;33326;51.116;6.900;2022-10-16T16:01:26;21.30;99.90
47604;DHT22;33326;51.116;6.900;2022-10-16T16:06:29;21.10;99.90
47604;DHT22;33326;51.116;6.900;2022-10-16T16:11:33;21.00;99.90
47604;DHT22;33326;51.116;6.900;2022-10-16T16:16:38;20.90;99.90
47604;DHT22;33326;51.116;6.900;2022-10-16T16:21:40;20.90;99.90
47604;DHT22;33326;51.116;6.900;2022-10-16T16:26:43;20.70;99.90
47604;DHT22;33326;51.116;6.900;2022-10-16T16:31:45;20.60;99.90
47604;DHT22;33326;51.116;6.900;2022-10-16T16:36:48;20.50;99.90
47604;DHT22;33326;51.116;6.900;2022-10-16T16:41:55;20.50;99.90
47604;DHT22;33326;51.116;6.900;2022-10-16T16:47:05;20.40;99.90
47604;DHT22;33326;51.116;6.900;2022-10-16T16:52:07;20.20;99.90
47604;DHT22;33326;51.116;6.900;2022-10-16T16:57:11;20.20;99.90
47604;DHT22;33326;51.116;6.900;2022-10-16T17:02:12;20.10;99.90
47604;DHT22;33326;51.116;6.900;2022-10-16T17:07:15;20.10;99.90
47604;DHT22;33326;51.116;6.900;2022-10-16T17:12:21;20.10;99.90
47604;DHT22;33326;51.116;6.900;2022-10-16T17:17:26;20.10;99.90
47604;DHT22;33326;51.116;6.900;2022-10-16T17:22:29;20.00;99.90
47604;DHT22;33326;51.116;6.900;2022-10-16T17:27:36;20.10;99.90
47604;DHT22;33326;51.116;6.900;2022-10-16T17:32:45;20.00;99.90
47604;DHT22;33326;51.116;6.900;2022-10-16T17:37:56;20.00;99.90
47604;DHT22;33326;51.116;6.900;2022-10-16T17:43:16;19.90;99.90
47604;DHT22;33326;51.116;6.900;2022-10-16T17:48:30;19.90;99.90
47604;DHT22;33326;51.116;6.900;2022-10-16T17:54:02;19.80;99.90
47604;DHT22;33326;51.116;6.900;2022-10-16T17:59:20;19.80;99.90
47604;DHT22;33326;51.116;6.900;2022-10-16T18:04:33;19.70;99.90
47604;DHT22;33326;51.116;6.900;2022-10-16T18:09:34;19.70;99.90
47604;DHT22;33326;51.116;6.900;2022-10-16T18:14:38;19.60;99.90
47604;DHT22;33326;51.116;6.900;2022-10-16T18:19:40;19.50;99.90
47604;DHT22;33326;51.116;6.900;2022-10-16T18:24:42;19.50;99.90
47604;DHT22;33326;51.116;6.900;2022-10-16T18:29:45;19.40;99.90
47604;DHT22;33326;51.116;6.900;2022-10-16T18:34:47;19.40;99.90
47604;DHT22;33326;51.116;6.900;2022-10-16T18:39:49;19.30;99.90
47604;DHT22;33326;51.116;6.900;2022-10-16T18:44:52;19.30;99.90
47604;DHT22;33326;51.116;6.900;2022-10-16T18:49:54;19.30;99.90
47604;DHT22;33326;51.116;6.900;2022-10-16T18:54:56;19.30;99.90
47604;DHT22;33326;51.116;6.900;2022-10-16T19:00:00;19.30;99.90
47604;DHT22;33326;51.116;6.900;2022-10-16T19:05:01;19.30;99.90
47604;DHT22;33326;51.116;6.900;2022-10-16T19:10:04;19.30;99.90
47604;DHT22;33326;51.116;6.900;2022-10-16T19:15:08;19.30;99.90
47604;DHT22;33326;51.116;6.900;2022-10-16T19:20:11;19.30;99.90
47604;DHT22;33326;51.116;6.900;2022-10-16T19:25:13;19.30;99.90
47604;DHT22;33326;51.116;6.900;2022-10-16T19:30:17;19.30;99.90
47604;DHT22;33326;51.116;6.900;2022-10-16T19:35:19;19.20;99.90
47604;DHT22;33326;51.116;6.900;2022-10-16T19:40:23;19.20;99.90
47604;DHT22;33326;51.116;6.900;2022-10-16T19:45:26;19.20;99.90
47604;DHT22;33326;51.116;6.900;2022-10-16T19:50:28;19.10;99.90
47604;DHT22;33326;51.116;6.900;2022-10-16T19:55:30;19.10;99.90
47604;DHT22;33326;51.116;6.900;2022-10-16T20:00:33;19.10;99.90
47604;DHT22;33326;51.116;6.900;2022-10-16T20:05:35;19.10;99.90
47604;DHT22;33326;51.116;6.900;2022-10-16T20:10:37;19.10;99.90
47604;DHT22;33326;51.116;6.900;2022-10-16T20:15:40;19.10;99.90
47604;DHT22;33326;51.116;6.900;2022-10-16T20:20:44;19.00;99.90
47604;DHT22;33326;51.116;6.900;2022-10-16T20:25:46;19.00;99.90
47604;DHT22;33326;51.116;6.900;2022-10-16T20:30:50;18.80;99.90
47604;DHT22;33326;51.116;6.900;2022-10-16T20:35:52;18.80;99.90
47604;DHT22;33326;51.116;6.900;2022-10-16T20:40:53;18.70;99.90
47604;DHT22;33326;51.116;6.900;2022-10-16T20:46:00;18.70;99.90
47604;DHT22;33326;51.116;6.900;2022-10-16T20:51:10;18.80;99.90
47604;DHT22;33326;51.116;6.900;2022-10-16T20:56:12;18.80;99.90
47604;DHT22;33326;51.116;6.900;2022-10-16T21:01:18;18.70;99.90
47604;DHT22;33326;51.116;6.900;2022-10-16T21:06:20;18.70;99.90
47604;DHT22;33326;51.116;6.900;2022-10-16T21:11:24;18.50;99.90
47604;DHT22;33326;51.116;6.900;2022-10-16T21:16:29;18.50;99.90
47604;DHT22;33326;51.116;6.900;2022-10-16T21:21:32;18.40;99.90
47604;DHT22;33326;51.116;6.900;2022-10-16T21:26:35;18.30;99.90
47604;DHT22;33326;51.116;6.900;2022-10-16T21:31:38;18.20;99.90
47604;DHT22;33326;51.116;6.900;2022-10-16T21:36:41;18.20;99.90
47604;DHT22;33326;51.116;6.900;2022-10-16T21:41:45;18.10;99.90
47604;DHT22;33326;51.116;6.900;2022-10-16T21:46:49;18.00;99.90
47604;DHT22;33326;51.116;6.900;2022-10-16T21:51:51;18.00;99.90
47604;DHT22;33326;51.116;6.900;2022-10-16T21:56:53;17.90;99.90
47604;DHT22;33326;51.116;6.900;2022-10-16T22:01:56;17.90;99.90
47604;DHT22;33326;51.116;6.900;2022-10-16T22:07:00;17.80;99.90
47604;DHT22;33326;51.116;6.900;2022-10-16T22:12:01;17.70;99.90
47604;DHT22;33326;51.116;6.900;2022-10-16T22:17:05;17.70;99.90
47604;DHT22;33326;51.116;6.900;2022-10-16T22:22:06;17.70;99.90
47604;DHT22;33326;51.116;6.900;2022-10-16T22:27:08;17.70;99.90
47604;DHT22;33326;51.116;6.900;2022-10-16T22:32:11;17.70;99.90
47604;DHT22;33326;51.116;6.900;2022-10-16T22:37:13;17.70;99.90
47604;DHT22;33326;51.116;6.900;2022-10-16T22:42:15;17.70;99.90
47604;DHT22;33326;51.116;6.900;2022-10-16T22:47:18;17.70;99.90
47604;DHT22;33326;51.116;6.900;2022-10-16T22:52:20;17.70;99.90
47604;DHT22;33326;51.116;6.900;2022-10-16T22:57:22;17.70;99.90
47604;DHT22;33326;51.116;6.900;2022-10-16T23:02:25;17.60;99.90
47604;DHT22;33326;51.116;6.900;2022-10-16T23:07:27;17.70;99.90
47604;DHT22;33326;51.116;6.900;2022-10-16T23:12:29;17.60;99.90
47604;DHT22;33326;51.116;6.900;2022-10-16T23:17:32;17.60;99.90
47604;DHT22;33326;51.116;6.900;2022-10-16T23:22:34;17.70;99.90
47604;DHT22;33326;51.116;6.900;2022-10-16T23:27:36;17.70;99.90
47604;DHT22;33326;51.116;6.900;2022-10-16T23:32:39;17.70;99.90
47604;DHT22;33326;51.116;6.900;2022-10-16T23:37:41;17.70;99.90
47604;DHT22;33326;51.116;6.900;2022-10-16T23:42:43;17.70;99.90
47604;DHT22;33326;51.116;6.900;2022-10-16T23:47:46;17.70;99.90
47604;DHT22;33326;51.116;6.900;2022-10-16T23:52:50;17.70;99.90
47604;DHT22;33326;51.116;6.900;2022-10-16T23:57:52;17.70;99.90
